createdAt,value
2019-01-03T00:01:56.557Z,102960.61
2019-01-03T00:04:52.213Z,102965.39
2019-01-03T00:07:47.768Z,102961.95
2019-01-03T00:10:36.599Z,102961.72
2019-01-03T00:13:38.231Z,102960.86
2019-01-03T00:16:34.201Z,102953.70
2019-01-03T00:19:22.739Z,102953.97
2019-01-03T00:22:09.573Z,102948.91
2019-01-03T00:24:59.292Z,102952.56
2019-01-03T00:27:54.222Z,102958.66
2019-01-03T00:31:02.154Z,102960.59
2019-01-03T00:33:50.112Z,102961.27
2019-01-03T00:36:38.300Z,102959.65
2019-01-03T00:39:28.224Z,102961.52
2019-01-03T00:42:20.812Z,102966.23
2019-01-03T00:45:09.081Z,102972.10
2019-01-03T00:47:57.528Z,102971.15
2019-01-03T00:50:56.589Z,102972.42
2019-01-03T00:53:46.306Z,102970.23
2019-01-03T00:56:48.232Z,102965.27
2019-01-03T00:59:37.945Z,102973.97
2019-01-03T01:02:35.308Z,102973.50
2019-01-03T01:05:24.173Z,102972.48
2019-01-03T01:08:31.899Z,102983.19
2019-01-03T01:11:21.623Z,102974.52
2019-01-03T01:14:11.672Z,102977.62
2019-01-03T01:17:12.181Z,102982.52
2019-01-03T01:20:00.264Z,102980.58
2019-01-03T01:22:48.875Z,102983.05
2019-01-03T01:25:56.859Z,102984.80
2019-01-03T01:28:58.518Z,102984.70
2019-01-03T01:31:48.681Z,102979.56
2019-01-03T01:34:37.169Z,102972.23
2019-01-03T01:37:27.245Z,102972.71
2019-01-03T01:40:25.681Z,102965.28
2019-01-03T01:43:13.959Z,102972.90
2019-01-03T01:45:52.575Z,102974.36
2019-01-03T01:48:45.212Z,102972.95
2019-01-03T01:51:53.208Z,102972.35
2019-01-03T01:54:54.785Z,102975.87
2019-01-03T01:57:50.201Z,102972.59
2019-01-03T02:00:38.706Z,102970.40
2019-01-03T02:03:28.406Z,102968.97
2019-01-03T02:06:18.180Z,102978.46
2019-01-03T02:09:10.746Z,102975.92
2019-01-03T02:12:16.871Z,102984.67
2019-01-03T02:15:12.408Z,102992.59
2019-01-03T02:18:00.948Z,102992.90
2019-01-03T02:20:51.817Z,102990.95
2019-01-03T02:23:41.570Z,102991.22
2019-01-03T02:26:39.477Z,102980.55
2019-01-03T02:29:41.469Z,102976.14
2019-01-03T02:32:29.917Z,102975.92
2019-01-03T02:35:18.113Z,102978.46
2019-01-03T02:38:06.931Z,102977.85
2019-01-03T02:41:14.645Z,102978.20
2019-01-03T02:44:07.552Z,102979.84
2019-01-03T02:47:00.676Z,102973.59
2019-01-03T02:49:46.896Z,102973.07
2019-01-03T02:52:36.654Z,102961.58
2019-01-03T02:55:30.204Z,102965.57
2019-01-03T02:58:29.150Z,102975.79
2019-01-03T03:01:37.026Z,102978.58
2019-01-03T03:04:24.962Z,102971.23
2019-01-03T03:07:19.071Z,102959.66
2019-01-03T03:09:58.676Z,102958.55
2019-01-03T03:12:46.828Z,102962.02
2019-01-03T03:15:35.409Z,102959.70
2019-01-03T03:18:25.115Z,102952.14
2019-01-03T03:21:13.608Z,102947.18
2019-01-03T03:24:09.776Z,102937.88
2019-01-03T03:26:59.658Z,102936.30
2019-01-03T03:30:07.600Z,102930.08
2019-01-03T03:33:15.396Z,102929.73
2019-01-03T03:36:10.923Z,102936.81
2019-01-03T03:38:59.512Z,102936.19
2019-01-03T03:42:01.171Z,102933.17
2019-01-03T03:45:00.005Z,102935.91
2019-01-03T03:48:01.870Z,102930.03
2019-01-03T03:50:42.485Z,102939.64
2019-01-03T03:53:35.239Z,102934.02
2019-01-03T03:56:34.135Z,102936.37
2019-01-03T03:59:22.198Z,102933.35
2019-01-03T04:02:10.756Z,102936.19
2019-01-03T04:04:59.209Z,102939.70
2019-01-03T04:07:47.844Z,102946.59
2019-01-03T04:10:34.520Z,102949.98
2019-01-03T04:13:33.324Z,102943.98
2019-01-03T04:16:26.163Z,102938.02
2019-01-03T04:19:27.985Z,102947.56
2019-01-03T04:22:16.234Z,102942.11
2019-01-03T04:25:18.306Z,102939.50
2019-01-03T04:28:18.348Z,102938.95
2019-01-03T04:31:14.590Z,102930.25
2019-01-03T04:34:19.663Z,102933.58
2019-01-03T04:37:04.126Z,102937.69
2019-01-03T04:39:58.156Z,102936.19
2019-01-03T04:42:46.243Z,102940.88
2019-01-03T04:45:38.074Z,102941.20
2019-01-03T04:48:27.885Z,102944.02
2019-01-03T04:51:29.852Z,102937.45
2019-01-03T04:54:19.602Z,102944.63
2019-01-03T04:57:05.035Z,102941.00
2019-01-03T04:59:53.154Z,102944.52
2019-01-03T05:02:55.066Z,102942.70
2019-01-03T05:05:54.304Z,102946.69
2019-01-03T05:08:42.418Z,102942.33
2019-01-03T05:11:38.052Z,102945.16
2019-01-03T05:14:33.858Z,102944.61
2019-01-03T05:17:26.944Z,102932.23
2019-01-03T05:20:23.467Z,102928.63
2019-01-03T05:23:16.377Z,102926.36
2019-01-03T05:26:16.100Z,102923.41
2019-01-03T05:29:04.508Z,102925.27
2019-01-03T05:32:05.146Z,102929.08
2019-01-03T05:34:54.889Z,102918.93
2019-01-03T05:37:47.762Z,102918.80
2019-01-03T05:40:36.363Z,102918.31
2019-01-03T05:43:34.287Z,102915.26
2019-01-03T05:46:42.157Z,102921.47
2019-01-03T05:49:35.751Z,102926.20
2019-01-03T05:52:43.737Z,102933.20
2019-01-03T05:55:42.626Z,102931.13
2019-01-03T05:58:32.391Z,102936.69
2019-01-03T06:01:20.873Z,102930.86
2019-01-03T06:04:16.801Z,102931.07
2019-01-03T06:07:05.208Z,102933.41
2019-01-03T06:09:51.463Z,102932.27
2019-01-03T06:12:44.336Z,102938.55
2019-01-03T06:15:52.351Z,102937.27
2019-01-03T06:18:44.587Z,102933.41
2019-01-03T06:21:47.896Z,102927.98
2019-01-03T06:24:36.449Z,102931.48
2019-01-03T06:27:38.435Z,102939.09
2019-01-03T06:30:28.263Z,102926.61
2019-01-03T06:33:26.886Z,102917.14
2019-01-03T06:36:23.951Z,102922.34
2019-01-03T06:39:31.765Z,102921.90
2019-01-03T06:42:24.419Z,102921.63
2019-01-03T06:45:13.084Z,102920.11
2019-01-03T06:48:20.063Z,102926.45
2019-01-03T06:51:04.743Z,102932.92
2019-01-03T06:54:00.605Z,102939.33
2019-01-03T06:56:48.798Z,102941.63
2019-01-03T06:59:37.195Z,102942.55
2019-01-03T07:02:39.527Z,102945.56
2019-01-03T07:05:27.716Z,102944.95
2019-01-03T07:08:35.971Z,102954.63
2019-01-03T07:11:25.788Z,102958.44
2019-01-03T07:14:33.576Z,102965.19
2019-01-03T07:17:29.097Z,102969.55
2019-01-03T07:20:24.755Z,102966.15
2019-01-03T07:23:14.814Z,102967.31
2019-01-03T07:26:19.861Z,102966.87
2019-01-03T07:29:22.244Z,102971.47
2019-01-03T07:32:10.602Z,102968.27
2019-01-03T07:35:00.378Z,102973.66
2019-01-03T07:38:01.979Z,102971.12
2019-01-03T07:40:50.147Z,102975.30
2019-01-03T07:43:55.150Z,102979.94
2019-01-03T07:46:44.892Z,102978.52
2019-01-03T07:49:37.399Z,102986.98
2019-01-03T07:52:25.938Z,102991.88
2019-01-03T07:55:15.901Z,102990.32
2019-01-03T07:58:04.268Z,102996.02
2019-01-03T08:00:57.072Z,102993.29
2019-01-03T08:03:50.912Z,102998.77
2019-01-03T08:06:40.925Z,102993.86
2019-01-03T08:09:39.863Z,102991.09
2019-01-03T08:12:28.301Z,102994.45
2019-01-03T08:15:32.945Z,102997.78
2019-01-03T08:18:21.039Z,102999.47
2019-01-03T08:21:23.026Z,103000.07
2019-01-03T08:24:21.604Z,103006.77
2019-01-03T08:27:17.361Z,103012.64
2019-01-03T08:30:10.520Z,103015.97
2019-01-03T08:32:56.291Z,103021.44
2019-01-03T08:35:44.385Z,103013.07
2019-01-03T08:38:33.490Z,103010.53
2019-01-03T08:41:37.972Z,103014.24
2019-01-03T08:44:33.881Z,103023.95
2019-01-03T08:47:18.003Z,103023.64
2019-01-03T08:50:25.940Z,103019.83
2019-01-03T08:53:21.213Z,103012.47
2019-01-03T08:56:09.185Z,103015.39
2019-01-03T08:59:05.017Z,103017.35
2019-01-03T09:02:03.957Z,103005.18
2019-01-03T09:05:02.495Z,102999.67
2019-01-03T09:07:51.033Z,102995.59
2019-01-03T09:10:43.537Z,102988.34
2019-01-03T09:13:33.699Z,102989.08
2019-01-03T09:16:35.606Z,102991.16
2019-01-03T09:19:31.178Z,102989.25
2019-01-03T09:22:13.965Z,102995.33
2019-01-03T09:25:02.121Z,102991.46
2019-01-03T09:28:04.000Z,102987.88
2019-01-03T09:30:52.385Z,102977.29
2019-01-03T09:33:45.242Z,102985.73
2019-01-03T09:36:41.110Z,102985.06
2019-01-03T09:39:30.854Z,102990.17
2019-01-03T09:42:20.663Z,102993.86
2019-01-03T09:44:51.570Z,102989.84
2019-01-03T09:47:22.771Z,102985.11
2019-01-03T09:49:53.642Z,102987.28
2019-01-03T09:52:24.893Z,102982.62
2019-01-03T09:54:55.817Z,102982.09
2019-01-03T09:57:26.705Z,102978.89
2019-01-03T09:59:57.655Z,102979.87
2019-01-03T10:02:28.634Z,102975.02
2019-01-03T10:04:59.656Z,102978.95
2019-01-03T10:07:30.539Z,102972.19
2019-01-03T10:10:01.456Z,102968.19
2019-01-03T10:12:32.355Z,102967.17
2019-01-03T10:15:03.251Z,102970.20
2019-01-03T10:17:34.193Z,102967.52
2019-01-03T10:20:05.632Z,102966.16
2019-01-03T10:22:36.498Z,102946.17
2019-01-03T10:25:07.746Z,102958.02
2019-01-03T10:27:38.958Z,102957.42
2019-01-03T10:30:10.061Z,102965.45
2019-01-03T10:32:40.986Z,102960.72
2019-01-03T10:35:11.866Z,102967.36
2019-01-03T10:37:42.757Z,102964.26
2019-01-03T10:40:14.184Z,102968.07
2019-01-03T10:42:45.094Z,102969.87
2019-01-03T10:45:16.015Z,102961.73
2019-01-03T10:47:46.987Z,102964.44
2019-01-03T10:50:17.873Z,102963.22
2019-01-03T10:52:48.750Z,102953.34
2019-01-03T10:55:19.682Z,102945.05
2019-01-03T10:57:50.892Z,102950.72
2019-01-03T11:00:21.799Z,102951.92
2019-01-03T11:02:52.740Z,102955.20
2019-01-03T11:05:23.643Z,102945.25
2019-01-03T11:07:54.577Z,102943.25
2019-01-03T11:10:25.592Z,102932.77
2019-01-03T11:12:56.790Z,102934.61
2019-01-03T11:15:27.725Z,102941.64
2019-01-03T11:17:59.017Z,102940.01
2019-01-03T11:20:29.955Z,102939.98
2019-01-03T11:23:00.859Z,102938.70
2019-01-03T11:25:31.778Z,102947.63
2019-01-03T11:28:02.728Z,102940.14
2019-01-03T11:30:33.588Z,102937.73
2019-01-03T11:33:04.831Z,102928.77
2019-01-03T11:35:35.764Z,102932.85
2019-01-03T11:38:06.995Z,102934.56
2019-01-03T11:40:37.948Z,102930.52
2019-01-03T11:43:08.836Z,102933.03
2019-01-03T11:45:39.811Z,102924.89
2019-01-03T11:48:10.940Z,102929.86
2019-01-03T11:50:41.828Z,102925.75
2019-01-03T11:53:12.760Z,102917.70
2019-01-03T11:55:43.715Z,102925.75
2019-01-03T11:58:14.586Z,102921.63
2019-01-03T12:00:45.468Z,102922.48
2019-01-03T12:03:16.433Z,102929.60
2019-01-03T12:05:47.560Z,102937.05
2019-01-03T12:08:19.110Z,102929.89
2019-01-03T12:10:50.163Z,102935.53
2019-01-03T12:13:21.412Z,102934.02
2019-01-03T12:15:52.378Z,102934.78
2019-01-03T12:18:23.825Z,102940.34
2019-01-03T12:20:54.687Z,102934.16
2019-01-03T12:23:25.939Z,102933.52
2019-01-03T12:25:57.000Z,102937.02
2019-01-03T12:28:27.891Z,102936.09
2019-01-03T12:30:59.180Z,102941.05
2019-01-03T12:33:30.107Z,102934.63
2019-01-03T12:36:03.944Z,102934.77
2019-01-03T12:38:34.877Z,102922.37
2019-01-03T12:41:05.778Z,102925.73
2019-01-03T12:43:36.689Z,102924.55
2019-01-03T12:46:07.980Z,102922.48
2019-01-03T12:48:45.363Z,102925.86
2019-01-03T12:51:11.888Z,102923.27
2019-01-03T12:53:42.819Z,102918.97
2019-01-03T12:56:13.748Z,102920.14
2019-01-03T12:58:45.067Z,102921.45
2019-01-03T13:01:16.054Z,102920.68
2019-01-03T13:03:47.242Z,102924.70
2019-01-03T13:06:21.116Z,102922.32
2019-01-03T13:08:50.770Z,102921.00
2019-01-03T13:11:21.668Z,102918.98
2019-01-03T13:13:52.674Z,102929.75
2019-01-03T13:16:23.547Z,102934.07
2019-01-03T13:18:54.442Z,102936.62
2019-01-03T13:21:25.382Z,102927.93
2019-01-03T13:23:56.262Z,102935.66
2019-01-03T13:26:27.853Z,102937.23
2019-01-03T13:28:58.803Z,102940.11
2019-01-03T13:31:29.703Z,102942.66
2019-01-03T13:34:00.593Z,102945.58
2019-01-03T13:36:31.506Z,102944.63
2019-01-03T13:39:02.469Z,102945.94
2019-01-03T13:41:33.665Z,102946.98
2019-01-03T13:44:04.599Z,102944.41
2019-01-03T13:46:36.066Z,102946.70
2019-01-03T13:49:06.960Z,102938.00
2019-01-03T13:51:38.205Z,102944.70
2019-01-03T13:54:09.452Z,102944.31
2019-01-03T13:56:40.345Z,102946.17
2019-01-03T13:59:11.388Z,102948.23
2019-01-03T14:01:42.318Z,102946.13
2019-01-03T14:04:13.294Z,102946.95
2019-01-03T14:06:44.322Z,102951.13
2019-01-03T14:09:15.227Z,102948.45
2019-01-03T14:11:46.544Z,102952.24
2019-01-03T14:14:17.751Z,102952.53
2019-01-03T14:16:48.960Z,102953.77
2019-01-03T14:19:20.205Z,102948.20
2019-01-03T14:21:51.150Z,102943.03
2019-01-03T14:24:22.326Z,102945.56
2019-01-03T14:26:53.234Z,102943.80
2019-01-03T14:29:24.207Z,102948.42
2019-01-03T14:31:55.076Z,102955.42
2019-01-03T14:34:26.341Z,102950.52
2019-01-03T14:36:57.308Z,102957.23
2019-01-03T14:39:28.187Z,102950.59
2019-01-03T14:41:59.068Z,102950.53
2019-01-03T14:44:29.995Z,102940.44
2019-01-03T14:47:00.886Z,102939.13
2019-01-03T14:49:32.081Z,102939.73
2019-01-03T14:52:03.454Z,102941.97
2019-01-03T14:54:34.340Z,102939.98
2019-01-03T14:57:05.230Z,102943.24
2019-01-03T14:59:36.449Z,102942.59
2019-01-03T15:02:07.348Z,102945.00
2019-01-03T15:04:38.308Z,102945.23
2019-01-03T15:07:09.257Z,102949.72
2019-01-03T15:09:40.237Z,102947.45
2019-01-03T15:12:11.348Z,102944.77
2019-01-03T15:14:42.524Z,102944.52
2019-01-03T15:17:13.403Z,102952.17
2019-01-03T15:19:44.374Z,102955.83
2019-01-03T15:22:15.574Z,102953.91
2019-01-03T15:24:46.545Z,102952.42
2019-01-03T15:27:17.577Z,102958.21
2019-01-03T15:29:48.560Z,102964.08
2019-01-03T15:32:19.531Z,102960.45
2019-01-03T15:34:50.836Z,102959.34
2019-01-03T15:37:21.728Z,102961.67
2019-01-03T15:39:52.629Z,102965.36
2019-01-03T15:42:23.903Z,102963.08
2019-01-03T15:44:54.807Z,102966.38
2019-01-03T15:47:25.743Z,102967.92
2019-01-03T15:49:56.669Z,102972.22
2019-01-03T15:52:27.539Z,102969.67
2019-01-03T15:54:58.454Z,102986.23
2019-01-03T15:57:29.373Z,102995.65
2019-01-03T16:00:00.549Z,103004.98
2019-01-03T16:02:31.501Z,103010.83
2019-01-03T16:05:02.444Z,103018.38
2019-01-03T16:07:33.322Z,103017.79
2019-01-03T16:10:04.233Z,103028.02
2019-01-03T16:12:35.301Z,103033.08
2019-01-03T16:15:06.437Z,103036.23
2019-01-03T16:17:37.439Z,103032.35
2019-01-03T16:20:09.148Z,103039.52
2019-01-03T16:22:40.341Z,103035.59
2019-01-03T16:25:11.541Z,103038.96
2019-01-03T16:27:42.523Z,103046.63
2019-01-03T16:30:13.506Z,103058.04
2019-01-03T16:32:44.791Z,103059.02
2019-01-03T16:35:15.745Z,103058.17
2019-01-03T16:37:46.646Z,103056.03
2019-01-03T16:40:17.858Z,103055.48
2019-01-03T16:42:48.819Z,103057.97
2019-01-03T16:45:19.735Z,103047.98
2019-01-03T16:47:50.931Z,103044.75
2019-01-03T16:50:22.142Z,103049.90
2019-01-03T16:52:53.023Z,103046.36
2019-01-03T16:55:26.088Z,103045.21
2019-01-03T16:57:57.026Z,103045.45
2019-01-03T17:00:27.916Z,103045.84
2019-01-03T17:02:58.952Z,103039.23
2019-01-03T17:05:29.883Z,103046.63
2019-01-03T17:08:01.124Z,103040.59
2019-01-03T17:10:32.435Z,103043.79
2019-01-03T17:13:03.639Z,103050.36
2019-01-03T17:15:34.560Z,103043.89
2019-01-03T17:18:05.844Z,103051.36
2019-01-03T17:20:37.041Z,103049.91
2019-01-03T17:23:08.000Z,103049.20
2019-01-03T17:25:38.968Z,103057.02
2019-01-03T17:28:09.889Z,103054.27
2019-01-03T17:30:40.853Z,103047.15
2019-01-03T17:33:12.097Z,103048.98
2019-01-03T17:35:43.315Z,103041.20
2019-01-03T17:38:14.203Z,103035.19
2019-01-03T17:40:45.137Z,103027.32
2019-01-03T17:43:16.023Z,103027.61
2019-01-03T17:45:47.232Z,103030.05
2019-01-03T17:48:18.172Z,103019.78
2019-01-03T17:50:49.154Z,103022.12
2019-01-03T17:53:20.051Z,103022.45
2019-01-03T17:55:51.020Z,103016.59
2019-01-03T17:58:21.914Z,103020.88
2019-01-03T18:00:54.213Z,103026.62
2019-01-03T18:03:25.136Z,103030.44
2019-01-03T18:05:56.071Z,103042.30
2019-01-03T18:08:26.944Z,103040.51
2019-01-03T18:10:57.925Z,103034.52
2019-01-03T18:13:29.143Z,103029.87
2019-01-03T18:16:00.356Z,103030.81
2019-01-03T18:18:36.596Z,103033.92
2019-01-03T18:21:03.931Z,103021.77
2019-01-03T18:23:34.966Z,103007.22
2019-01-03T18:26:06.036Z,103004.41
2019-01-03T18:28:36.921Z,103014.98
2019-01-03T18:31:07.897Z,103013.11
2019-01-03T18:33:38.904Z,103009.16
2019-01-03T18:36:09.874Z,103013.97
2019-01-03T18:38:40.919Z,103013.97
2019-01-03T18:41:11.877Z,103019.42
2019-01-03T18:43:43.120Z,103034.02
2019-01-03T18:46:14.125Z,103038.09
2019-01-03T18:48:45.038Z,103040.81
2019-01-03T18:51:15.964Z,103041.67
2019-01-03T18:53:47.217Z,103048.31
2019-01-03T18:56:18.440Z,103048.47
2019-01-03T18:58:49.797Z,103052.59
2019-01-03T19:01:20.781Z,103046.53
2019-01-03T19:03:51.753Z,103048.61
2019-01-03T19:06:22.682Z,103052.34
2019-01-03T19:08:53.617Z,103050.84
2019-01-03T19:11:24.856Z,103049.42
2019-01-03T19:13:56.110Z,103057.27
2019-01-03T19:16:27.064Z,103056.98
2019-01-03T19:18:59.475Z,103062.23
2019-01-03T19:21:30.782Z,103063.59
2019-01-03T19:24:01.984Z,103067.33
2019-01-03T19:26:33.003Z,103074.27
2019-01-03T19:29:06.891Z,103074.27
2019-01-03T19:31:38.165Z,103069.07
2019-01-03T19:34:09.089Z,103060.43
2019-01-03T19:36:40.074Z,103059.16
2019-01-03T19:39:11.366Z,103057.83
2019-01-03T19:41:42.604Z,103061.04
2019-01-03T19:44:13.828Z,103057.88
2019-01-03T19:46:44.770Z,103069.25
2019-01-03T19:49:15.791Z,103071.95
2019-01-03T19:51:47.146Z,103073.33
2019-01-03T19:54:18.494Z,103069.82
2019-01-03T19:56:49.818Z,103066.19
2019-01-03T19:59:20.710Z,103072.15
2019-01-03T20:01:51.788Z,103077.25
2019-01-03T20:04:23.113Z,103079.98
2019-01-03T20:06:54.454Z,103084.62
2019-01-03T20:09:25.512Z,103087.97
2019-01-03T20:11:56.550Z,103083.81
2019-01-03T20:14:27.912Z,103082.16
2019-01-03T20:16:59.156Z,103078.86
2019-01-03T20:19:30.713Z,103073.80
2019-01-03T20:22:01.867Z,103075.45
2019-01-03T20:24:33.144Z,103071.58
2019-01-03T20:27:04.541Z,103077.02
2019-01-03T20:29:36.317Z,103077.38
2019-01-03T20:32:07.657Z,103076.97
2019-01-03T20:34:38.899Z,103075.13
2019-01-03T20:37:09.879Z,103074.60
2019-01-03T20:39:40.801Z,103074.22
2019-01-03T20:42:12.151Z,103081.78
2019-01-03T20:44:43.472Z,103075.88
2019-01-03T20:47:15.111Z,103085.22
2019-01-03T20:49:46.135Z,103077.63
2019-01-03T20:52:17.447Z,103077.63
2019-01-03T20:54:48.511Z,103076.63
2019-01-03T20:57:19.421Z,103077.96
2019-01-03T20:59:50.755Z,103084.13
2019-01-03T21:02:21.965Z,103087.54
2019-01-03T21:04:52.885Z,103085.83
2019-01-03T21:07:23.912Z,103090.22
2019-01-03T21:09:54.873Z,103095.43
2019-01-03T21:12:25.896Z,103088.73
2019-01-03T21:14:56.770Z,103092.64
2019-01-03T21:17:27.679Z,103094.92
2019-01-03T21:19:59.630Z,103090.86
2019-01-03T21:22:30.872Z,103090.15
2019-01-03T21:25:01.874Z,103092.45
2019-01-03T21:27:32.890Z,103089.66
2019-01-03T21:30:04.519Z,103091.19
2019-01-03T21:32:35.486Z,103086.64
2019-01-03T21:35:06.857Z,103078.38
2019-01-03T21:37:37.908Z,103088.68
2019-01-03T21:40:10.822Z,103081.13
2019-01-03T21:42:41.743Z,103079.09
2019-01-03T21:45:13.129Z,103070.62
2019-01-03T21:47:44.818Z,103068.06
2019-01-03T21:50:15.855Z,103062.30
2019-01-03T21:52:46.766Z,103065.15
2019-01-03T21:55:17.712Z,103063.72
2019-01-03T21:57:48.599Z,103056.51
2019-01-03T22:00:19.518Z,103055.51
2019-01-03T22:02:50.530Z,103056.66
2019-01-03T22:05:21.444Z,103047.72
2019-01-03T22:07:52.486Z,103053.81
2019-01-03T22:10:23.444Z,103055.38
2019-01-03T22:12:54.401Z,103054.05
2019-01-03T22:15:25.349Z,103047.85
2019-01-03T22:17:56.265Z,103052.83
2019-01-03T22:20:27.229Z,103046.02
2019-01-03T22:22:58.173Z,103042.89
2019-01-03T22:25:29.172Z,103038.97
2019-01-03T22:28:01.210Z,103035.66
2019-01-03T22:30:32.098Z,103030.09
2019-01-03T22:33:03.024Z,103023.85
2019-01-03T22:35:33.909Z,103024.38
2019-01-03T22:38:04.819Z,103016.80
2019-01-03T22:40:35.778Z,103020.59
2019-01-03T22:43:06.688Z,103022.83
2019-01-03T22:45:37.590Z,103020.89
2019-01-03T22:48:08.595Z,103018.39
2019-01-03T22:50:39.827Z,103019.00
2019-01-03T22:53:10.760Z,103018.53
2019-01-03T22:55:41.999Z,103024.62
2019-01-03T22:58:13.326Z,103029.44
2019-01-03T23:00:51.008Z,103032.23
2019-01-03T23:03:21.969Z,103032.23
2019-01-03T23:05:52.873Z,103025.91
2019-01-03T23:08:23.877Z,103016.87
2019-01-03T23:10:54.826Z,103017.25
2019-01-03T23:13:25.794Z,103013.23
2019-01-03T23:15:56.761Z,103008.19
2019-01-03T23:18:31.573Z,103007.67
2019-01-03T23:21:00.479Z,103004.42
2019-01-03T23:23:31.674Z,103000.16
2019-01-03T23:26:07.508Z,103009.69
2019-01-03T23:28:38.453Z,103013.79
2019-01-03T23:31:09.429Z,103009.63
2019-01-03T23:33:40.461Z,103012.86
2019-01-03T23:36:11.371Z,103023.37
2019-01-03T23:38:42.254Z,103024.88
2019-01-03T23:41:13.178Z,103027.50
2019-01-03T23:43:44.084Z,103018.78
2019-01-03T23:46:15.114Z,103014.19
2019-01-03T23:48:46.054Z,103022.45
2019-01-03T23:51:16.942Z,103018.78
2019-01-03T23:53:47.854Z,103010.31
2019-01-03T23:56:19.106Z,103012.36
2019-01-03T23:58:50.471Z,103017.25
